Eek, AK (99578)

6:23 AM AKST on January 29, 2015 (GMT -0900)
Quinhagak | Change Station
CLOSE
Current Station
Airport
Location: Quinhagak|Kwinhagak Airport,
Elevation: 43 ft
Nearby Weather Stations

Elev 43 ft 59.76 °N, 161.85 °W | Updated 27 minutes ago

Clear
Clear
-5 °F
Feels Like -31 °F
N
25
Wind Variable Wind from North
Gusts 33 mph

Today
High -- | Low -- °F
--% Chance of Precip.
Yesterday
High -- | Low -- °F
Precip. -- in
10:07 AM 5:55 PM
Waxing Gibbous, 75% visible
Pressure 30.32 in
Visibility 10.0 miles
Clouds Clear
Windchill -31 °F
Dew Point -12 °F
Humidity 72%
Rainfall 0.00 in
Snow Depth Not available.
UV 0 out of 12
Pollen Not available.
Air Quality Not available.
Flu Activity Not available.
METAR PAQH 291456Z AUTO 35022G29KT 10SM CLR M21/M24 A3032 RMK AO2 PK WND 35031/1421 SLP268 T12061244 51015 FZRANO

More Conditions Fewer Conditions

Pressure 30.32 in
Visibility 10.0 miles
Clouds Clear
Windchill -31 °F
Dew Point -12 °F
Humidity 72%
Rainfall 0.00 in
Snow Depth Not available.
UV 0 out of 12
Pollen Not available.
Air Quality Not available.
Flu Activity Not available.
METAR PAQH 291456Z AUTO 35022G29KT 10SM CLR M21/M24 A3032 RMK AO2 PK WND 35031/1421 SLP268 T12061244 51015 FZRANO

More Conditions Fewer Conditions

10-Day Weather Forecast

Almanac

Astronomy

Jan. 29, 2015 Rise Set
Actual Time
Civil Twilight
Nautical Twilight
Astronomical Twilight
Moon
Length of Visible Light
Length of Day
Tomorrow will be .
, % of the Moon is Illuminated

Today's Extremes

State Highs State Lows

Community

WunderPhotos

Upload Photos

1,791,455 photos uploaded!

WunderBlogs® & News

Nearby

Air Quality

  Air Quality AQ Index Pollutant
Not available.

Snow Depth

Station Depth Elevation

Earthquake Activity

City Distance Mag. Time & Date
Minimum magnitude displayed is 2.5.

Coastal Water Temperatures

Place Temperature

Nearby Weather Stations